createdAt,value
2022-11-06T00:01:15.518Z,13.13
2022-11-06T00:03:43.655Z,12.75
2022-11-06T00:06:31.568Z,15.48
2022-11-06T00:09:04.382Z,14.82
2022-11-06T00:11:32.095Z,12.73
2022-11-06T00:14:01.067Z,13.35
2022-11-06T00:16:28.530Z,13.70
2022-11-06T00:18:55.948Z,13.75
2022-11-06T00:21:26.239Z,13.82
2022-11-06T00:23:54.862Z,13.32
2022-11-06T00:26:25.294Z,14.88
2022-11-06T00:28:53.671Z,13.00
2022-11-06T00:31:23.510Z,12.20
2022-11-06T00:33:51.643Z,12.30
2022-11-06T00:36:21.424Z,11.38
2022-11-06T00:38:53.162Z,13.02
2022-11-06T00:41:21.355Z,12.13
2022-11-06T00:43:55.024Z,12.60
2022-11-06T00:46:22.711Z,12.57
2022-11-06T00:48:50.224Z,14.45
2022-11-06T00:51:23.424Z,12.13
2022-11-06T00:53:57.242Z,12.02
2022-11-06T00:56:25.352Z,12.25
2022-11-06T00:58:53.582Z,15.90
2022-11-06T01:01:24.063Z,12.00
2022-11-06T01:04:00.480Z,10.52
2022-11-06T01:06:31.787Z,13.88
2022-11-06T01:08:59.539Z,10.43
2022-11-06T01:11:52.619Z,12.80
2022-11-06T01:14:22.121Z,12.90
2022-11-06T01:16:50.399Z,10.55
2022-11-06T01:19:19.902Z,10.43
2022-11-06T01:21:49.315Z,10.98
2022-11-06T01:24:23.354Z,10.80
2022-11-06T01:27:19.763Z,14.10
2022-11-06T01:29:38.711Z,10.50
2022-11-06T01:32:06.593Z,12.02
2022-11-06T01:34:34.342Z,11.27
2022-11-06T01:37:01.712Z,15.70
2022-11-06T01:39:29.117Z,13.15
2022-11-06T01:41:56.487Z,12.20
2022-11-06T01:44:35.970Z,10.00
2022-11-06T01:47:06.745Z,10.55
2022-11-06T01:49:38.197Z,12.70
2022-11-06T01:52:11.578Z,11.35
2022-11-06T01:54:41.701Z,11.07
2022-11-06T01:57:10.869Z,12.75
2022-11-06T01:59:41.900Z,11.30
2022-11-06T02:02:09.561Z,11.52
2022-11-06T02:04:40.845Z,11.68
2022-11-06T02:07:09.114Z,11.13
2022-11-06T02:09:36.963Z,11.32
2022-11-06T02:12:17.261Z,10.07
2022-11-06T02:14:59.761Z,11.33
2022-11-06T02:17:32.921Z,9.80
2022-11-06T02:20:27.709Z,12.07
2022-11-06T02:23:10.109Z,10.55
2022-11-06T02:25:49.639Z,10.55
2022-11-06T02:28:26.804Z,10.05
2022-11-06T02:30:58.307Z,8.38
2022-11-06T02:33:32.558Z,12.50
2022-11-06T02:36:07.437Z,7.93
2022-11-06T02:38:38.968Z,8.88
2022-11-06T02:41:12.599Z,9.02
2022-11-06T02:43:46.816Z,10.45
2022-11-06T02:46:20.482Z,9.75
2022-11-06T02:48:52.193Z,9.48
2022-11-06T02:51:25.495Z,9.45
2022-11-06T02:53:54.424Z,10.25
2022-11-06T02:56:26.321Z,9.35
2022-11-06T02:59:11.576Z,10.15
2022-11-06T03:01:56.480Z,11.63
2022-11-06T03:04:42.671Z,9.25
2022-11-06T03:07:29.263Z,9.23
2022-11-06T03:09:57.176Z,9.57
2022-11-06T03:12:40.115Z,8.68
2022-11-06T03:15:29.225Z,11.65
2022-11-06T03:18:17.650Z,8.65
2022-11-06T03:21:07.812Z,7.53
2022-11-06T03:23:48.563Z,8.60
2022-11-06T03:26:20.333Z,8.80
2022-11-06T03:28:52.575Z,10.40
2022-11-06T03:31:29.584Z,11.25
2022-11-06T03:34:03.857Z,10.05
2022-11-06T03:36:47.606Z,10.88
2022-11-06T03:39:21.251Z,8.50
2022-11-06T03:42:10.260Z,9.45
2022-11-06T03:44:43.042Z,9.52
2022-11-06T03:47:15.798Z,9.32
2022-11-06T03:49:49.641Z,8.85
2022-11-06T03:52:22.350Z,8.43
2022-11-06T03:55:01.597Z,12.27
2022-11-06T03:57:44.749Z,9.85
2022-11-06T04:00:12.921Z,10.82
2022-11-06T04:02:45.445Z,9.63
2022-11-06T04:05:38.320Z,10.35
2022-11-06T04:08:27.069Z,9.32
2022-11-06T04:11:16.675Z,11.38
2022-11-06T04:13:57.799Z,11.27
2022-11-06T04:16:27.516Z,8.75
2022-11-06T04:18:54.895Z,9.30
2022-11-06T04:21:26.864Z,9.02
2022-11-06T04:24:34.352Z,9.95
2022-11-06T04:27:28.767Z,11.63
2022-11-06T04:30:08.771Z,11.85
2022-11-06T04:32:41.878Z,9.30
2022-11-06T04:35:21.037Z,12.23
2022-11-06T04:37:54.398Z,12.65
2022-11-06T04:44:03.970Z,9.50
2022-11-06T04:46:36.986Z,9.65
2022-11-06T04:49:06.997Z,10.32
2022-11-06T04:51:38.262Z,11.43
2022-11-06T04:54:09.288Z,12.38
2022-11-06T04:56:41.483Z,9.40
2022-11-06T04:59:16.177Z,12.45
2022-11-06T05:01:44.488Z,10.50
2022-11-06T05:04:12.317Z,12.00
2022-11-06T05:06:39.751Z,15.50
2022-11-06T05:09:07.131Z,12.50
2022-11-06T05:11:34.486Z,13.07
2022-11-06T05:14:01.925Z,11.20
2022-11-06T05:16:29.269Z,12.35
2022-11-06T05:18:56.775Z,12.20
2022-11-06T05:21:42.716Z,10.63
2022-11-06T05:24:10.594Z,11.02
2022-11-06T05:26:38.119Z,10.55
2022-11-06T05:29:05.537Z,11.25
2022-11-06T05:31:33.127Z,11.10
2022-11-06T05:34:00.514Z,10.65
2022-11-06T05:36:27.866Z,11.60
2022-11-06T05:38:55.211Z,10.00
2022-11-06T05:41:22.607Z,12.57
2022-11-06T05:43:50.042Z,11.02
2022-11-06T05:46:46.446Z,11.63
2022-11-06T05:49:04.736Z,10.35
2022-11-06T05:51:32.160Z,10.27
2022-11-06T05:53:59.568Z,10.10
2022-11-06T05:56:26.916Z,9.35
2022-11-06T05:58:54.286Z,13.02
2022-11-06T06:01:21.778Z,10.25
2022-11-06T06:03:49.251Z,8.50
2022-11-06T06:06:16.899Z,10.38
2022-11-06T06:08:44.203Z,12.18
2022-11-06T06:11:11.571Z,8.20
2022-11-06T06:13:38.958Z,11.38
2022-11-06T06:16:07.130Z,12.25
2022-11-06T06:18:34.541Z,10.02
2022-11-06T06:21:02.008Z,10.95
2022-11-06T06:23:29.385Z,10.90
2022-11-06T06:25:57.771Z,12.02
2022-11-06T06:28:25.125Z,9.15
2022-11-06T06:30:54.832Z,8.57
2022-11-06T06:33:26.016Z,9.07
2022-11-06T06:35:53.347Z,10.35
2022-11-06T06:38:20.776Z,10.25
2022-11-06T06:40:48.165Z,10.40
2022-11-06T06:43:15.529Z,10.05
2022-11-06T06:45:43.188Z,9.52
2022-11-06T06:48:10.976Z,10.05
2022-11-06T06:50:38.647Z,10.80
2022-11-06T06:53:06.030Z,10.48
2022-11-06T06:55:33.437Z,11.32
2022-11-06T06:58:02.159Z,11.30
2022-11-06T07:00:30.100Z,9.98
2022-11-06T07:02:57.615Z,9.95
2022-11-06T07:05:25.355Z,11.10
2022-11-06T07:07:52.730Z,14.55
2022-11-06T07:10:20.146Z,11.93
2022-11-06T07:12:47.606Z,12.27
2022-11-06T07:15:15.369Z,10.75
2022-11-06T07:17:42.773Z,9.55
2022-11-06T07:20:10.903Z,7.45
2022-11-06T07:22:38.348Z,9.70
2022-11-06T07:25:06.741Z,8.18
2022-11-06T07:27:34.177Z,8.40
2022-11-06T07:30:01.788Z,10.80
2022-11-06T07:32:29.692Z,11.02
2022-11-06T07:34:57.415Z,9.48
2022-11-06T07:37:24.747Z,8.25
2022-11-06T07:39:52.180Z,10.70
2022-11-06T07:42:19.691Z,8.65
2022-11-06T07:44:47.136Z,9.63
2022-11-06T07:47:14.440Z,8.65
2022-11-06T07:49:44.528Z,8.60
2022-11-06T07:52:15.598Z,8.50
2022-11-06T07:54:42.942Z,7.80
2022-11-06T07:57:10.308Z,8.55
2022-11-06T07:59:37.621Z,7.88
2022-11-06T08:02:05.177Z,7.75
2022-11-06T08:04:32.645Z,8.10
2022-11-06T08:07:00.083Z,8.00
2022-11-06T08:09:27.540Z,8.68
2022-11-06T08:11:54.932Z,8.75
2022-11-06T08:14:22.420Z,8.70
2022-11-06T08:16:49.839Z,8.55
2022-11-06T08:19:17.307Z,6.25
2022-11-06T08:21:44.682Z,8.32
2022-11-06T08:24:13.677Z,11.10
2022-11-06T08:26:42.835Z,6.22
2022-11-06T08:29:10.208Z,8.02
2022-11-06T08:31:37.684Z,7.45
2022-11-06T08:34:05.424Z,7.63
2022-11-06T08:36:38.483Z,11.10
2022-11-06T08:39:06.030Z,6.50
2022-11-06T08:41:33.515Z,7.53
2022-11-06T08:44:00.914Z,9.40
2022-11-06T08:46:28.298Z,9.48
2022-11-06T08:48:55.750Z,6.45
2022-11-06T08:51:23.213Z,7.40
2022-11-06T08:53:50.973Z,6.90
2022-11-06T08:56:18.532Z,5.75
2022-11-06T08:58:46.762Z,6.88
2022-11-06T09:01:15.023Z,6.47
2022-11-06T09:03:42.434Z,6.53
2022-11-06T09:06:09.873Z,10.75
2022-11-06T09:08:37.227Z,7.43
2022-11-06T09:11:07.953Z,7.63
2022-11-06T09:13:35.313Z,5.45
2022-11-06T09:16:02.726Z,6.53
2022-11-06T09:18:30.228Z,5.50
2022-11-06T09:20:57.875Z,5.82
2022-11-06T09:23:25.630Z,5.85
2022-11-06T09:25:53.043Z,8.02
2022-11-06T09:28:20.388Z,5.40
2022-11-06T09:30:47.765Z,7.55
2022-11-06T09:33:15.559Z,7.47
2022-11-06T09:35:43.458Z,6.68
2022-11-06T09:38:12.838Z,7.47
2022-11-06T09:40:46.965Z,7.63
2022-11-06T09:44:08.974Z,6.32
2022-11-06T09:46:42.724Z,4.80
2022-11-06T09:49:37.686Z,4.82
2022-11-06T09:52:28.454Z,7.30
2022-11-06T09:55:00.133Z,5.57
2022-11-06T09:57:54.035Z,6.20
2022-11-06T10:00:22.032Z,8.48
2022-11-06T10:03:16.452Z,6.18
2022-11-06T10:05:46.823Z,7.95
2022-11-06T10:08:25.015Z,5.73
2022-11-06T10:10:52.348Z,4.95
2022-11-06T10:13:38.375Z,7.13
2022-11-06T10:16:17.515Z,7.93
2022-11-06T10:19:06.514Z,7.20
2022-11-06T10:21:51.884Z,5.38
2022-11-06T10:24:34.169Z,8.35
2022-11-06T10:27:11.557Z,6.93
2022-11-06T10:30:03.483Z,7.00
2022-11-06T10:33:03.357Z,5.90
2022-11-06T10:35:39.914Z,6.05
2022-11-06T10:38:15.135Z,6.82
2022-11-06T10:40:49.292Z,5.45
2022-11-06T10:43:36.408Z,7.30
2022-11-06T10:46:41.158Z,8.75
2022-11-06T10:49:45.610Z,6.70
2022-11-06T10:52:37.140Z,6.25
2022-11-06T10:55:34.924Z,8.45
2022-11-06T10:58:21.270Z,6.35
2022-11-06T11:00:50.479Z,7.05
2022-11-06T11:03:29.630Z,7.68
2022-11-06T11:05:56.990Z,8.82
2022-11-06T11:08:35.943Z,7.38
2022-11-06T11:11:15.999Z,6.50
2022-11-06T11:13:46.352Z,7.70
2022-11-06T11:16:18.527Z,7.40
2022-11-06T11:18:49.281Z,7.13
2022-11-06T11:21:19.347Z,6.90
2022-11-06T11:24:11.297Z,5.85
2022-11-06T11:26:44.051Z,11.55
2022-11-06T11:29:17.718Z,6.85
2022-11-06T11:31:50.031Z,6.82
2022-11-06T11:34:22.787Z,9.05
2022-11-06T11:37:03.662Z,7.72
2022-11-06T11:39:41.036Z,7.75
2022-11-06T11:42:24.704Z,7.68
2022-11-06T11:45:17.441Z,7.45
2022-11-06T11:47:48.041Z,6.20
2022-11-06T11:50:32.115Z,8.00
2022-11-06T11:53:18.998Z,6.80
2022-11-06T11:55:49.365Z,7.28
2022-11-06T11:58:26.732Z,10.82
2022-11-06T12:01:07.620Z,6.45
2022-11-06T12:03:42.544Z,10.18
2022-11-06T12:06:13.396Z,8.85
2022-11-06T12:08:50.305Z,10.02
2022-11-06T12:11:26.061Z,8.38
2022-11-06T12:14:27.337Z,8.90
2022-11-06T12:17:11.899Z,13.80
2022-11-06T12:19:42.066Z,14.45
2022-11-06T12:22:22.196Z,13.57
2022-11-06T12:24:54.736Z,10.75
2022-11-06T12:27:33.565Z,10.20
2022-11-06T12:30:07.874Z,15.68
2022-11-06T12:33:16.485Z,10.40
2022-11-06T12:35:52.717Z,8.95
2022-11-06T12:38:37.942Z,16.05
2022-11-06T12:41:28.328Z,11.77
2022-11-06T12:43:57.135Z,10.43
2022-11-06T12:46:59.804Z,12.45
2022-11-06T12:49:39.286Z,11.77
2022-11-06T12:52:24.455Z,13.32
2022-11-06T12:55:05.353Z,10.88
2022-11-06T12:57:50.760Z,9.88
2022-11-06T13:00:31.303Z,10.27
2022-11-06T13:03:16.924Z,11.13
2022-11-06T13:06:00.822Z,12.10
2022-11-06T13:08:46.964Z,10.73
2022-11-06T13:11:29.849Z,10.88
2022-11-06T13:14:02.983Z,10.40
2022-11-06T13:17:01.056Z,10.02
2022-11-06T13:19:38.707Z,8.95
2022-11-06T13:22:30.227Z,8.02
2022-11-06T13:25:12.518Z,11.18
2022-11-06T13:27:53.132Z,27.17
2022-11-06T13:30:23.211Z,13.27
2022-11-06T13:33:15.353Z,12.38
2022-11-06T13:35:45.040Z,18.17
2022-11-06T13:38:27.401Z,23.85
2022-11-06T13:41:05.438Z,33.63
2022-11-06T13:43:41.517Z,39.70
2022-11-06T13:46:20.609Z,32.22
2022-11-06T13:48:57.193Z,20.20
2022-11-06T13:51:59.855Z,17.55
2022-11-06T13:54:58.019Z,15.20
2022-11-06T13:57:54.297Z,18.58
2022-11-06T14:00:51.116Z,83.53
2022-11-06T14:03:51.286Z,22.05
2022-11-06T14:06:23.982Z,23.40
2022-11-06T14:08:54.849Z,20.17
2022-11-06T14:11:34.945Z,39.53
2022-11-06T14:14:14.264Z,20.25
2022-11-06T14:16:45.792Z,16.90
2022-11-06T14:19:23.598Z,14.35
2022-11-06T14:21:53.189Z,14.68
2022-11-06T14:24:30.756Z,15.38
2022-11-06T14:26:59.879Z,15.80
2022-11-06T14:29:27.402Z,12.48
2022-11-06T14:32:13.202Z,15.15
2022-11-06T14:34:42.879Z,15.30
2022-11-06T14:37:19.750Z,13.93
2022-11-06T14:39:56.613Z,18.92
2022-11-06T14:42:26.938Z,17.38
2022-11-06T14:45:22.327Z,12.63
2022-11-06T14:47:54.497Z,14.98
2022-11-06T14:50:40.036Z,18.40
2022-11-06T14:53:23.476Z,14.00
2022-11-06T14:56:06.393Z,16.73
2022-11-06T14:58:37.863Z,18.08
2022-11-06T15:01:10.926Z,12.65
2022-11-06T15:03:41.153Z,13.10
2022-11-06T15:06:28.467Z,19.27
2022-11-06T15:08:59.104Z,19.52
2022-11-06T15:11:35.082Z,22.80
2022-11-06T15:14:09.016Z,12.27
2022-11-06T15:16:49.764Z,14.35
2022-11-06T15:19:17.106Z,22.73
2022-11-06T15:22:07.063Z,15.60
2022-11-06T15:24:56.986Z,13.27
2022-11-06T15:27:30.597Z,16.65
2022-11-06T15:30:01.933Z,15.60
2022-11-06T15:32:35.534Z,17.85
2022-11-06T15:35:27.716Z,15.27
2022-11-06T15:38:03.511Z,13.38
2022-11-06T15:40:35.818Z,15.63
2022-11-06T15:43:22.233Z,14.07
2022-11-06T15:46:06.998Z,13.32
2022-11-06T15:48:35.135Z,12.88
2022-11-06T15:51:02.945Z,12.25
2022-11-06T15:53:30.963Z,13.30
2022-11-06T15:56:08.835Z,14.30
2022-11-06T15:58:37.964Z,14.38
2022-11-06T16:01:07.863Z,15.73
2022-11-06T16:03:49.555Z,15.13
2022-11-06T16:06:17.651Z,15.00
2022-11-06T16:08:45.661Z,17.42
2022-11-06T16:11:18.018Z,15.02
2022-11-06T16:13:46.777Z,14.57
2022-11-06T16:16:39.552Z,13.68
2022-11-06T16:19:20.230Z,14.55
2022-11-06T16:21:58.592Z,16.00
2022-11-06T16:24:29.416Z,18.02
2022-11-06T16:26:56.946Z,18.25
2022-11-06T16:29:28.032Z,15.45
2022-11-06T16:34:37.583Z,11.27
2022-11-06T16:39:52.632Z,17.50
2022-11-06T16:42:23.105Z,13.43
2022-11-06T16:45:10.885Z,14.73
2022-11-06T16:47:38.280Z,18.67
2022-11-06T16:50:44.018Z,20.40
2022-11-06T16:53:11.997Z,17.65
2022-11-06T16:55:41.637Z,18.08
2022-11-06T16:58:16.187Z,15.98
2022-11-06T17:00:43.863Z,17.92
2022-11-06T17:03:21.478Z,15.88
2022-11-06T17:05:54.860Z,18.38
2022-11-06T17:08:41.833Z,18.35
2022-11-06T17:11:21.919Z,16.60
2022-11-06T17:13:50.878Z,21.35
2022-11-06T17:16:20.758Z,21.63
2022-11-06T17:18:48.642Z,18.80
2022-11-06T17:21:22.350Z,18.20
2022-11-06T17:23:50.982Z,19.48
2022-11-06T17:26:24.317Z,19.75
2022-11-06T17:28:52.344Z,19.75
2022-11-06T17:31:21.369Z,17.27
2022-11-06T17:33:49.071Z,20.05
2022-11-06T17:36:25.470Z,19.70
2022-11-06T17:38:54.747Z,16.38
2022-11-06T17:41:32.613Z,19.58
2022-11-06T17:44:12.418Z,19.50
2022-11-06T17:46:45.510Z,20.50
2022-11-06T17:49:17.907Z,18.50
2022-11-06T17:52:00.565Z,19.55
2022-11-06T17:54:32.613Z,18.25
2022-11-06T17:57:02.332Z,23.73
2022-11-06T17:59:30.142Z,42.50
2022-11-06T18:01:57.932Z,23.48
2022-11-06T18:04:27.178Z,23.27
2022-11-06T18:06:55.111Z,17.88
2022-11-06T18:09:23.308Z,17.58
2022-11-06T18:11:52.660Z,20.27
2022-11-06T18:14:21.473Z,18.90
2022-11-06T18:16:49.259Z,19.83
2022-11-06T18:19:19.920Z,21.65
2022-11-06T18:21:47.760Z,18.38
2022-11-06T18:24:15.335Z,21.73
2022-11-06T18:26:42.763Z,23.05
2022-11-06T18:29:11.652Z,17.40
2022-11-06T18:31:39.727Z,20.98
2022-11-06T18:34:07.909Z,19.50
2022-11-06T18:36:36.875Z,21.35
2022-11-06T18:39:05.326Z,22.13
2022-11-06T18:41:34.690Z,20.27
2022-11-06T18:44:02.280Z,19.35
2022-11-06T18:46:30.383Z,23.58
2022-11-06T18:48:58.425Z,20.15
2022-11-06T18:51:35.634Z,20.48
2022-11-06T18:54:06.960Z,19.60
2022-11-06T18:56:39.040Z,21.20
2022-11-06T18:59:11.679Z,21.63
2022-11-06T19:01:39.191Z,20.98
2022-11-06T19:04:06.849Z,19.67
2022-11-06T19:06:34.435Z,23.35
2022-11-06T19:09:01.891Z,21.95
2022-11-06T19:11:29.210Z,24.95
2022-11-06T19:13:56.526Z,24.05
2022-11-06T19:16:23.952Z,25.95
2022-11-06T19:21:30.686Z,25.65
2022-11-06T19:24:03.917Z,25.20
2022-11-06T19:26:33.591Z,28.23
2022-11-06T19:29:01.402Z,29.98
2022-11-06T19:31:30.213Z,28.48
2022-11-06T19:33:59.083Z,30.17
2022-11-06T19:36:27.221Z,29.58
2022-11-06T19:38:54.927Z,29.23
2022-11-06T19:41:22.366Z,27.33
2022-11-06T19:43:49.730Z,25.42
2022-11-06T19:46:25.667Z,27.77
2022-11-06T19:48:55.996Z,27.08
2022-11-06T19:51:23.404Z,26.90
2022-11-06T19:53:54.431Z,25.45
2022-11-06T19:56:22.588Z,28.33
2022-11-06T19:58:50.866Z,27.40
2022-11-06T20:01:20.713Z,27.88
2022-11-06T20:03:48.317Z,25.00
2022-11-06T20:06:16.407Z,27.77
2022-11-06T20:08:47.354Z,25.73
2022-11-06T20:11:15.312Z,29.50
2022-11-06T20:13:44.945Z,30.77
2022-11-06T20:16:15.507Z,28.23
2022-11-06T20:18:44.127Z,32.83
2022-11-06T20:21:12.857Z,34.95
2022-11-06T20:23:40.346Z,30.92
2022-11-06T20:26:07.755Z,35.72
2022-11-06T20:28:35.700Z,36.33
2022-11-06T20:31:11.868Z,33.80
2022-11-06T20:33:40.049Z,33.63
2022-11-06T20:36:23.208Z,33.90
2022-11-06T20:38:55.083Z,36.38
2022-11-06T20:41:22.835Z,35.40
2022-11-06T20:43:51.309Z,33.97
2022-11-06T20:46:20.493Z,37.17
2022-11-06T20:48:48.409Z,39.13
2022-11-06T20:51:19.115Z,32.78
2022-11-06T20:53:47.248Z,35.70
2022-11-06T20:56:16.930Z,30.40
2022-11-06T20:58:45.304Z,35.53
2022-11-06T21:01:20.107Z,39.17
2022-11-06T21:03:50.016Z,34.83
2022-11-06T21:06:19.438Z,37.58
2022-11-06T21:08:47.184Z,38.00
2022-11-06T21:11:22.874Z,36.00
2022-11-06T21:13:52.216Z,43.08
2022-11-06T21:16:23.036Z,33.95
2022-11-06T21:18:51.126Z,39.00
2022-11-06T21:21:24.534Z,35.42
2022-11-06T21:23:53.130Z,39.47
2022-11-06T21:26:24.372Z,34.33
2022-11-06T21:28:52.202Z,42.00
2022-11-06T21:31:22.655Z,41.55
2022-11-06T21:33:52.251Z,41.85
2022-11-06T21:36:25.734Z,39.95
2022-11-06T21:38:53.977Z,41.40
2022-11-06T21:41:24.565Z,44.47
2022-11-06T21:43:51.967Z,41.53
2022-11-06T21:46:21.146Z,42.65
2022-11-06T21:48:50.196Z,38.28
2022-11-06T21:51:30.016Z,42.40
2022-11-06T21:54:16.458Z,46.08
2022-11-06T21:56:44.628Z,46.47
2022-11-06T21:59:14.825Z,40.78
2022-11-06T22:01:43.238Z,38.53
2022-11-06T22:04:11.510Z,38.17
2022-11-06T22:06:42.984Z,38.78
2022-11-06T22:09:13.163Z,42.33
2022-11-06T22:11:43.322Z,43.57
2022-11-06T22:14:14.531Z,46.40
2022-11-06T22:19:12.323Z,33.78
2022-11-06T22:21:40.928Z,39.30
2022-11-06T22:24:10.620Z,41.75
2022-11-06T22:26:38.307Z,37.97
2022-11-06T22:29:08.951Z,37.97
2022-11-06T22:31:36.511Z,43.08
2022-11-06T22:34:04.387Z,38.78
2022-11-06T22:36:31.945Z,37.38
2022-11-06T22:39:00.840Z,41.10
2022-11-06T22:41:28.282Z,39.35
2022-11-06T22:43:59.275Z,37.13
2022-11-06T22:48:54.677Z,38.00
2022-11-06T22:51:25.388Z,35.70
2022-11-06T22:53:53.039Z,37.80
2022-11-06T22:56:22.913Z,37.30
2022-11-06T22:59:04.120Z,33.97
2022-11-06T23:04:08.898Z,37.40
2022-11-06T23:06:36.333Z,34.87
2022-11-06T23:09:03.810Z,36.30
2022-11-06T23:11:31.830Z,35.33
2022-11-06T23:14:06.008Z,40.13
2022-11-06T23:16:54.464Z,36.33
2022-11-06T23:19:21.911Z,41.58
2022-11-06T23:21:49.338Z,39.58
2022-11-06T23:24:16.828Z,32.92
2022-11-06T23:26:44.753Z,35.45
2022-11-06T23:29:12.595Z,35.47
2022-11-06T23:31:41.328Z,35.33
2022-11-06T23:34:08.878Z,29.90
2022-11-06T23:36:36.272Z,35.92
2022-11-06T23:39:03.727Z,31.13
2022-11-06T23:41:43.052Z,31.77
2022-11-06T23:44:30.521Z,31.77
2022-11-06T23:46:58.450Z,32.53
2022-11-06T23:49:25.856Z,36.67
2022-11-06T23:51:53.708Z,34.88
2022-11-06T23:54:21.400Z,33.25
2022-11-06T23:56:48.823Z,36.55
2022-11-06T23:59:16.331Z,31.85
